Metigoshe, North Dakota
Current Conditions -  °F | °C
As of 2:15 AM on Friday 21 Nov 2014 (Local Time) from KRUG Reporting Station
Clear Clear  
Wind Chill:   Ceiling: Unl
Heat Index: 18°   Visibility: 10mi
Dew Point: 16°   Wind: 9mph
Humidity: 93%   Direction: 180°S
Pressure: 29.77"   Gusts: NA
Location:  48.8385°N, 100.496°W
Report Text: KRUG 210815Z AUTO 18008KT 10SM CLR M08/M09 A2977 RMK AO2
Loading
Personal Weather Stations






























Interactive Weather Map New forecast layout! Learn more

10-Day Weather Forecast

Advertisements
Track Severe Weather on mobile